Time;durP1;ratioP1;P1;durP2;ratioP2;P2;SDS_P1;SDS_P2;PMS_P1;PMS_P2;Temp;Humidity;BMP_temperature;BMP_pressure;BME280_temperature;BME280_humidity;BME280_pressure;Samples;Min_cycle;Max_cycle;Signal;HPM_P1;HPM_P2
2023/09/06 00:00:26;;;;;;;39.53;6.28;;;;;;;18.28;74.87;99344.41;4945192;28;20039;-77
2023/09/06 00:02:52;;;;;;;7.68;3.00;;;;;;;18.32;74.76;99337.34;4947204;28;20062;-77
2023/09/06 00:05:17;;;;;;;3.47;2.80;;;;;;;18.30;75.36;99344.94;4946432;28;20173;-77
2023/09/06 00:07:44;;;;;;;3.95;2.67;;;;;;;18.23;75.44;99339.06;4947915;28;20039;-76
2023/09/06 00:10:10;;;;;;;5.32;3.20;;;;;;;18.23;75.19;99347.97;4958376;28;20030;-76
2023/09/06 00:12:35;;;;;;;5.65;2.60;;;;;;;18.17;75.32;99332.91;4915109;28;20043;-77
2023/09/06 00:15:04;;;;;;;4.95;2.70;;;;;;;18.27;75.54;99349.00;4944824;28;20050;-76
2023/09/06 00:17:29;;;;;;;7.40;3.13;;;;;;;18.35;74.94;99342.16;4946349;28;20042;-76
2023/09/06 00:19:55;;;;;;;5.80;2.80;;;;;;;18.38;74.52;99336.19;4941222;28;21981;-75
2023/09/06 00:22:20;;;;;;;6.53;2.67;;;;;;;18.48;74.36;99331.50;4942216;28;22478;-75
2023/09/06 00:24:46;;;;;;;5.40;3.20;;;;;;;18.41;74.11;99325.59;4958332;28;20240;-76
2023/09/06 00:27:11;;;;;;;3.72;2.72;;;;;;;18.34;74.47;99335.16;4951293;28;20039;-75
2023/09/06 00:29:36;;;;;;;7.03;3.10;;;;;;;18.46;73.97;99330.97;4954785;28;20130;-76
2023/09/06 00:32:02;;;;;;;2.90;2.60;;;;;;;18.35;73.52;99326.75;4950588;28;20038;-76
2023/09/06 00:34:28;;;;;;;3.28;2.58;;;;;;;18.38;74.30;99328.06;4935159;28;20066;-77
2023/09/06 00:36:54;;;;;;;2.47;2.28;;;;;;;18.39;73.73;99330.47;4953319;28;20039;-76
2023/09/06 00:39:19;;;;;;;3.97;2.50;;;;;;;18.29;73.31;99324.38;4949154;28;20038;-76
2023/09/06 00:41:44;;;;;;;4.43;3.00;;;;;;;18.34;73.96;99329.75;4968928;28;20042;-77
2023/09/06 00:44:10;;;;;;;6.13;2.53;;;;;;;18.25;74.29;99331.47;4955490;28;21985;-76
2023/09/06 00:46:36;;;;;;;4.30;2.65;;;;;;;18.30;73.86;99326.81;4953347;28;20034;-76
2023/09/06 00:49:02;;;;;;;3.78;2.35;;;;;;;18.26;74.08;99324.97;4955203;28;20058;-77
2023/09/06 00:51:28;;;;;;;5.20;2.95;;;;;;;18.29;73.97;99322.50;4952789;28;20107;-77
2023/09/06 00:53:54;;;;;;;5.63;2.85;;;;;;;18.26;73.55;99320.34;4966222;28;20979;-78
2023/09/06 00:56:20;;;;;;;3.83;3.08;;;;;;;18.15;73.72;99324.25;4951364;28;20480;-78
2023/09/06 00:58:46;;;;;;;6.90;3.28;;;;;;;17.92;74.46;99319.63;4952189;28;20085;-79
2023/09/06 01:01:11;;;;;;;11.65;2.80;;;;;;;18.04;74.56;99314.66;4953470;28;21170;-78
2023/09/06 01:03:40;;;;;;;7.00;2.83;;;;;;;18.14;74.08;99322.66;4949531;28;20046;-78
2023/09/06 01:06:14;;;;;;;4.10;2.60;;;;;;;18.09;74.32;99320.00;4950815;28;20046;-78
2023/09/06 01:08:46;;;;;;;6.22;2.80;;;;;;;18.13;73.51;99323.75;4954104;28;20081;-79
2023/09/06 01:11:21;;;;;;;5.03;2.97;;;;;;;18.07;73.74;99318.66;4950449;28;20503;-79
2023/09/06 01:13:54;;;;;;;3.53;2.40;;;;;;;18.04;73.73;99328.19;4950193;28;20047;-79
2023/09/06 01:16:26;;;;;;;3.10;2.45;;;;;;;18.01;74.04;99322.53;4951451;28;20101;-79
2023/09/06 01:18:52;;;;;;;9.30;2.70;;;;;;;18.00;73.68;99324.41;4949982;28;20043;-78
2023/09/06 01:21:19;;;;;;;5.90;2.60;;;;;;;18.05;73.54;99324.38;4951489;28;20045;-79
2023/09/06 01:23:46;;;;;;;4.63;2.70;;;;;;;18.05;73.63;99328.97;4949793;28;20082;-79
2023/09/06 01:26:11;;;;;;;7.43;3.33;;;;;;;17.86;73.58;99320.78;4951332;28;20031;-78
2023/09/06 01:28:37;;;;;;;7.15;2.97;;;;;;;17.78;73.77;99332.97;4949528;28;20034;-79
2023/09/06 01:31:02;;;;;;;3.10;2.58;;;;;;;17.76;74.48;99332.47;4951990;28;20095;-78
2023/09/06 01:33:29;;;;;;;7.53;2.75;;;;;;;17.80;74.02;99325.41;4951737;28;20039;-78
2023/09/06 01:35:55;;;;;;;4.43;2.80;;;;;;;17.81;73.79;99329.72;4952608;28;20023;-78
2023/09/06 01:38:20;;;;;;;9.05;3.28;;;;;;;17.61;74.44;99324.50;4951299;28;20145;-78
2023/09/06 01:40:46;;;;;;;7.93;3.05;;;;;;;17.51;75.08;99335.38;4951130;28;20523;-78
2023/09/06 01:43:12;;;;;;;2.95;2.47;;;;;;;17.56;74.75;99329.91;4964705;28;20077;-78
2023/09/06 01:45:39;;;;;;;11.13;3.05;;;;;;;17.59;74.58;99332.06;4951599;28;20138;-78
2023/09/06 01:48:04;;;;;;;6.70;2.85;;;;;;;17.56;74.63;99337.22;4947287;28;20035;-77
2023/09/06 01:50:30;;;;;;;6.82;2.97;;;;;;;17.40;75.15;99327.59;4961893;28;20043;-78
2023/09/06 01:52:55;;;;;;;14.63;3.72;;;;;;;17.56;75.08;99332.63;4948382;28;20030;-77
2023/09/06 01:55:21;;;;;;;3.45;2.70;;;;;;;17.39;75.56;99334.06;4949886;28;20077;-77
2023/09/06 01:57:47;;;;;;;6.07;2.70;;;;;;;17.45;75.27;99331.06;4921519;28;20027;-78
2023/09/06 02:00:28;;;;;;;4.78;2.92;;;;;;;17.58;75.02;99327.75;4968247;28;20042;-77
2023/09/06 02:02:57;;;;;;;6.45;2.65;;;;;;;17.50;75.21;99325.66;4969354;28;20034;-77
2023/09/06 02:05:23;;;;;;;5.10;3.00;;;;;;;17.52;75.43;99331.56;4971007;28;20038;-77
2023/09/06 02:07:49;;;;;;;4.57;2.78;;;;;;;17.48;75.43;99335.91;4953042;28;20066;-77
2023/09/06 02:10:14;;;;;;;4.88;2.85;;;;;;;17.48;75.10;99337.78;4966358;28;20046;-77
2023/09/06 02:12:40;;;;;;;8.55;3.10;;;;;;;17.42;75.84;99330.81;4970503;28;20031;-76
2023/09/06 02:15:13;;;;;;;4.28;2.63;;;;;;;17.43;75.41;99338.63;4970886;28;20042;-76
2023/09/06 02:17:42;;;;;;;8.20;2.95;;;;;;;17.46;75.71;99337.25;4974240;28;20031;-78
2023/09/06 02:20:17;;;;;;;8.15;2.75;;;;;;;17.59;74.99;99336.66;4979035;28;20027;-79
2023/09/06 02:22:47;;;;;;;4.93;3.15;;;;;;;17.38;75.93;99335.97;4979556;28;20034;-77
2023/09/06 02:25:13;;;;;;;3.22;2.92;;;;;;;17.42;75.94;99345.13;4979966;28;20039;-80
2023/09/06 02:27:40;;;;;;;7.10;2.70;;;;;;;17.23;76.20;99344.19;4974452;28;20570;-76
2023/09/06 02:30:06;;;;;;;6.53;3.15;;;;;;;17.35;76.00;99346.50;4972773;28;20065;-75
2023/09/06 02:32:35;;;;;;;5.40;3.30;;;;;;;17.35;75.42;99350.03;4971561;28;20030;-76
2023/09/06 02:35:01;;;;;;;7.70;2.80;;;;;;;17.33;76.18;99354.91;4974377;28;20042;-76
2023/09/06 02:37:26;;;;;;;7.15;3.65;;;;;;;17.44;75.38;99350.22;4972119;28;20041;-76
2023/09/06 02:39:54;;;;;;;8.52;3.83;;;;;;;17.56;75.04;99354.22;4970534;28;20035;-76
2023/09/06 02:42:21;;;;;;;7.28;2.53;;;;;;;17.31;75.63;99354.38;4972148;28;20030;-76
2023/09/06 02:44:46;;;;;;;4.13;2.78;;;;;;;17.37;74.96;99355.94;4971577;28;20285;-78
2023/09/06 02:47:15;;;;;;;7.25;2.80;;;;;;;17.40;74.73;99360.78;4972618;28;20090;-76
2023/09/06 02:49:42;;;;;;;6.53;3.05;;;;;;;17.41;74.90;99353.50;4971723;28;20026;-76
2023/09/06 02:52:28;;;;;;;8.50;3.35;;;;;;;17.29;75.16;99355.72;4986677;28;20034;-78
2023/09/06 02:54:57;;;;;;;5.63;2.70;;;;;;;17.32;74.71;99350.56;4995008;28;20031;-78
2023/09/06 02:57:24;;;;;;;5.57;3.13;;;;;;;17.20;74.87;99352.81;4968500;28;20035;-78
2023/09/06 02:59:51;;;;;;;5.47;2.72;;;;;;;17.30;74.43;99358.13;4971366;28;21297;-79
2023/09/06 03:02:18;;;;;;;15.38;3.70;;;;;;;17.25;74.77;99358.97;4973530;28;20712;-78
2023/09/06 03:04:43;;;;;;;6.28;2.95;;;;;;;17.21;75.14;99354.44;4974994;28;20031;-78
2023/09/06 03:07:09;;;;;;;5.97;3.03;;;;;;;17.30;74.28;99354.66;4970061;28;20101;-79
2023/09/06 03:09:35;;;;;;;6.18;3.00;;;;;;;17.33;74.47;99351.38;4967915;28;20023;-79
2023/09/06 03:12:11;;;;;;;8.73;3.35;;;;;;;17.22;74.76;99345.25;4973099;28;20027;-77
2023/09/06 03:14:43;;;;;;;4.68;2.70;;;;;;;17.14;74.85;99359.34;4971226;28;20551;-78
2023/09/06 03:17:09;;;;;;;8.30;3.95;;;;;;;17.21;74.32;99354.44;4956730;28;20070;-79
2023/09/06 03:19:40;;;;;;;7.28;2.95;;;;;;;17.13;74.80;99361.22;4957078;28;20043;-78
2023/09/06 03:22:09;;;;;;;5.95;3.13;;;;;;;17.14;74.35;99373.63;4960623;28;20042;-79
2023/09/06 03:24:40;;;;;;;15.82;4.00;;;;;;;17.09;74.48;99364.75;4957879;28;21100;-79
2023/09/06 03:27:09;;;;;;;12.32;3.65;;;;;;;17.04;74.92;99362.06;4958739;28;20049;-79
2023/09/06 03:29:37;;;;;;;7.72;3.63;;;;;;;17.07;74.29;99373.13;4957203;28;20035;-78
2023/09/06 03:32:07;;;;;;;5.78;3.00;;;;;;;17.01;74.58;99373.44;4935377;28;20112;-79
2023/09/06 03:34:33;;;;;;;4.13;2.67;;;;;;;16.70;75.54;99380.84;4954274;28;20066;-78
2023/09/06 03:36:58;;;;;;;7.75;2.80;;;;;;;16.87;75.35;99375.09;4957366;28;20138;-78
2023/09/06 03:39:28;;;;;;;11.05;3.50;;;;;;;16.98;74.54;99373.97;4953126;28;20075;-78
2023/09/06 03:41:55;;;;;;;8.50;3.58;;;;;;;17.02;74.57;99375.03;4954631;28;20089;-75
2023/09/06 03:44:21;;;;;;;5.70;3.60;;;;;;;16.93;74.94;99369.41;4950804;28;20077;-77
2023/09/06 03:46:48;;;;;;;8.60;3.35;;;;;;;16.84;74.49;99376.44;4953247;28;20039;-76
2023/09/06 03:49:15;;;;;;;9.52;3.33;;;;;;;16.78;74.88;99371.34;4952302;28;20491;-76
2023/09/06 03:51:40;;;;;;;6.45;2.95;;;;;;;16.86;74.63;99374.28;4951362;28;20027;-75
2023/09/06 03:54:06;;;;;;;3.72;2.75;;;;;;;16.95;74.14;99369.16;4949226;28;20027;-76
2023/09/06 03:56:31;;;;;;;4.22;3.05;;;;;;;16.95;74.44;99366.44;4952648;28;20034;-75
2023/09/06 03:59:00;;;;;;;5.28;3.10;;;;;;;16.84;74.96;99372.97;4950954;28;20039;-75
2023/09/06 04:01:26;;;;;;;3.40;2.83;;;;;;;16.77;75.10;99383.25;4952328;28;20049;-79
2023/09/06 04:03:52;;;;;;;3.75;2.97;;;;;;;16.76;74.70;99377.03;4957407;28;20472;-77
2023/09/06 04:06:19;;;;;;;7.30;3.40;;;;;;;16.81;74.38;99378.91;4951640;28;20117;-75
2023/09/06 04:08:45;;;;;;;6.63;2.85;;;;;;;16.70;74.39;99383.53;4948987;28;20129;-75
2023/09/06 04:11:10;;;;;;;10.57;3.53;;;;;;;16.64;74.71;99383.81;4948286;28;20027;-76
2023/09/06 04:13:35;;;;;;;2.83;2.55;;;;;;;16.62;75.09;99375.22;4943822;28;20038;-76
2023/09/06 04:16:01;;;;;;;8.55;3.00;;;;;;;16.72;74.95;99380.56;4950039;28;20035;-75
2023/09/06 04:18:28;;;;;;;4.80;3.10;;;;;;;16.69;75.27;99378.41;4947624;28;20049;-75
2023/09/06 04:20:53;;;;;;;7.60;3.25;;;;;;;16.69;74.71;99383.78;4960893;28;20076;-76
2023/09/06 04:23:19;;;;;;;5.20;2.75;;;;;;;16.72;74.97;99391.34;4944847;28;20427;-75
2023/09/06 04:25:44;;;;;;;4.68;2.97;;;;;;;16.61;74.91;99382.47;4946739;28;20518;-77
2023/09/06 04:28:11;;;;;;;5.22;3.10;;;;;;;16.58;75.41;99393.00;4956880;28;20039;-76
2023/09/06 04:30:38;;;;;;;3.55;3.00;;;;;;;16.58;75.52;99403.78;4960995;28;20034;-75
2023/09/06 04:33:12;;;;;;;5.38;3.13;;;;;;;16.58;75.08;99399.19;4967048;28;20035;-76
2023/09/06 04:35:43;;;;;;;3.47;3.17;;;;;;;16.61;74.72;99414.00;4963619;28;20491;-76
2023/09/06 04:38:14;;;;;;;8.00;3.75;;;;;;;16.60;75.03;99407.03;4963302;28;20038;-76
2023/09/06 04:40:42;;;;;;;6.22;3.53;;;;;;;16.59;74.85;99406.22;4959202;28;20103;-76
2023/09/06 04:43:08;;;;;;;5.40;2.83;;;;;;;16.57;75.04;99413.75;4962213;28;20766;-76
2023/09/06 04:45:37;;;;;;;7.05;2.95;;;;;;;16.49;75.21;99412.38;4962685;28;20073;-76
2023/09/06 04:48:08;;;;;;;5.68;3.22;;;;;;;16.57;74.99;99419.16;4963309;28;20069;-76
2023/09/06 04:50:35;;;;;;;9.32;3.25;;;;;;;16.57;74.07;99423.72;4967865;28;20082;-77
2023/09/06 04:53:00;;;;;;;8.15;3.70;;;;;;;16.48;75.09;99428.84;4962731;28;20042;-75
2023/09/06 04:55:25;;;;;;;4.72;2.70;;;;;;;16.46;75.12;99426.41;4965689;28;20114;-76
2023/09/06 04:57:53;;;;;;;3.97;2.70;;;;;;;16.38;75.22;99426.16;4969085;28;20149;-76
2023/09/06 05:00:30;;;;;;;6.00;3.15;;;;;;;16.35;75.89;99429.38;4968574;28;20037;-77
2023/09/06 05:02:57;;;;;;;4.63;2.75;;;;;;;16.29;75.95;99423.19;4966542;28;20093;-74
2023/09/06 05:05:23;;;;;;;6.45;3.78;;;;;;;16.23;76.36;99426.16;4969797;28;20077;-77
2023/09/06 05:07:49;;;;;;;7.72;3.25;;;;;;;16.25;76.23;99427.50;4969722;28;20035;-77
2023/09/06 05:10:14;;;;;;;5.20;3.35;;;;;;;16.30;76.13;99432.09;4971599;28;20027;-77
2023/09/06 05:12:40;;;;;;;8.15;3.15;;;;;;;16.19;76.40;99433.16;4975249;28;20488;-77
2023/09/06 05:15:07;;;;;;;5.85;3.05;;;;;;;16.07;77.06;99430.78;4971127;28;20487;-74
2023/09/06 05:17:33;;;;;;;5.75;2.92;;;;;;;16.10;77.11;99440.16;4968136;28;20049;-76
2023/09/06 05:20:32;;;;;;;6.47;2.95;;;;;;;16.05;77.46;99435.63;4986720;28;20050;-77
2023/09/06 05:23:01;;;;;;;3.88;3.17;;;;;;;15.92;77.69;99428.06;4971999;28;20042;-76
2023/09/06 05:25:26;;;;;;;5.38;2.97;;;;;;;15.99;77.98;99441.28;4972299;28;20033;-77
2023/09/06 05:27:57;;;;;;;6.50;3.00;;;;;;;15.93;78.11;99442.31;4965285;28;20034;-76
2023/09/06 05:30:23;;;;;;;4.97;3.25;;;;;;;15.93;78.25;99453.91;4963475;28;20039;-76
2023/09/06 05:32:49;;;;;;;4.38;3.20;;;;;;;15.95;78.36;99445.56;4963929;28;20034;-77
2023/09/06 05:35:15;;;;;;;6.97;2.83;;;;;;;15.98;78.53;99453.91;4959076;28;20022;-77
2023/09/06 05:37:40;;;;;;;2.88;2.67;;;;;;;15.96;78.74;99456.06;4961555;28;20459;-81
2023/09/06 05:40:08;;;;;;;4.15;3.08;;;;;;;15.99;78.38;99452.03;4947825;28;20035;-78
2023/09/06 05:42:34;;;;;;;6.07;3.58;;;;;;;16.01;78.36;99460.66;4969113;28;20034;-78
2023/09/06 05:44:59;;;;;;;6.47;3.20;;;;;;;16.07;78.59;99460.41;4965101;28;20594;-77
2023/09/06 05:47:25;;;;;;;5.80;3.85;;;;;;;16.05;78.98;99457.16;4969454;28;20046;-77
2023/09/06 05:49:55;;;;;;;6.30;3.63;;;;;;;16.10;78.80;99457.13;4956143;28;20438;-76
2023/09/06 05:52:22;;;;;;;4.22;3.25;;;;;;;16.07;79.34;99465.78;4957428;28;20049;-76
2023/09/06 05:54:48;;;;;;;5.90;3.65;;;;;;;16.07;79.27;99462.28;4962519;28;20026;-76
2023/09/06 05:57:14;;;;;;;4.45;3.65;;;;;;;16.07;79.37;99470.34;4966568;28;20035;-75
2023/09/06 05:59:39;;;;;;;6.65;3.38;;;;;;;16.16;79.79;99468.75;4961368;28;20038;-77
2023/09/06 06:02:05;;;;;;;6.07;3.95;;;;;;;16.19;79.53;99469.00;4958458;28;20111;-76
2023/09/06 06:04:30;;;;;;;4.47;3.55;;;;;;;16.18;79.64;99475.47;4957851;28;20447;-77
2023/09/06 06:06:56;;;;;;;7.35;3.17;;;;;;;16.19;79.74;99476.25;4959433;28;20086;-75
2023/09/06 06:09:24;;;;;;;5.53;3.78;;;;;;;16.20;79.96;99480.59;4961891;28;20031;-76
2023/09/06 06:11:53;;;;;;;4.88;3.22;;;;;;;16.31;79.69;99474.13;4962808;28;20042;-76
2023/09/06 06:14:19;;;;;;;6.35;3.10;;;;;;;16.32;80.14;99481.94;4961237;28;20035;-76
2023/09/06 06:16:44;;;;;;;4.00;3.63;;;;;;;16.30;80.18;99491.34;4971664;28;20526;-75
2023/09/06 06:19:09;;;;;;;7.07;3.75;;;;;;;16.18;81.25;99488.94;4963302;28;20547;-76
2023/09/06 06:21:35;;;;;;;9.60;3.38;;;;;;;16.28;80.66;99483.53;4950686;28;20026;-76
2023/09/06 06:24:01;;;;;;;5.38;3.85;;;;;;;16.30;81.18;99484.09;4965141;28;20089;-76
2023/09/06 06:26:27;;;;;;;7.10;3.95;;;;;;;16.27;82.04;99483.81;4963821;28;20086;-77
2023/09/06 06:28:54;;;;;;;4.55;4.07;;;;;;;16.20;82.79;99481.41;4969151;28;20047;-76
2023/09/06 06:31:20;;;;;;;6.30;4.85;;;;;;;16.14;84.01;99474.38;4962719;28;20058;-77
2023/09/06 06:33:46;;;;;;;6.32;5.25;;;;;;;16.05;87.18;99477.88;4965301;28;20031;-76
2023/09/06 06:36:11;;;;;;;5.32;3.90;;;;;;;16.44;81.66;99481.66;4953230;28;20090;-75
2023/09/06 06:38:36;;;;;;;3.90;3.60;;;;;;;16.44;81.29;99477.09;4968537;28;20106;-76
2023/09/06 06:41:02;;;;;;;6.00;4.30;;;;;;;16.33;82.55;99478.16;4969350;28;20137;-76
2023/09/06 06:43:28;;;;;;;9.15;5.00;;;;;;;16.22;86.20;99489.19;4969514;28;20050;-75
2023/09/06 06:45:55;;;;;;;7.00;4.25;;;;;;;16.55;82.08;99477.09;4966292;28;20045;-76
2023/09/06 06:48:20;;;;;;;8.27;4.38;;;;;;;16.71;81.40;99486.78;4964589;28;20046;-76
2023/09/06 06:50:46;;;;;;;4.72;3.95;;;;;;;16.74;81.04;99483.53;4961909;28;20035;-76
2023/09/06 06:53:11;;;;;;;6.53;3.85;;;;;;;16.78;80.84;99484.59;4971872;28;20039;-75
2023/09/06 06:55:37;;;;;;;7.93;4.97;;;;;;;16.68;82.35;99487.31;4972365;28;20018;-75
2023/09/06 06:58:03;;;;;;;7.30;5.35;;;;;;;16.35;87.09;99494.06;4973254;28;20062;-76
2023/09/06 07:00:31;;;;;;;7.72;6.22;;;;;;;16.19;88.83;99490.53;4971037;28;20038;-76
2023/09/06 07:02:57;;;;;;;6.68;5.47;;;;;;;16.11;89.78;99482.19;4964605;28;20035;-73
2023/09/06 07:05:23;;;;;;;4.82;3.72;;;;;;;16.76;83.02;99487.56;4968095;28;20480;-75
2023/09/06 07:07:48;;;;;;;5.05;3.90;;;;;;;16.91;82.10;99486.72;4969472;28;20133;-75
2023/09/06 07:10:15;;;;;;;6.95;3.80;;;;;;;16.88;81.57;99489.97;4969791;28;20111;-76
2023/09/06 07:12:40;;;;;;;14.45;6.38;;;;;;;16.71;84.64;99498.34;4966974;28;20255;-75
2023/09/06 07:15:06;;;;;;;7.30;4.32;;;;;;;16.89;82.02;99488.88;4967563;28;20507;-75
2023/09/06 07:17:32;;;;;;;5.93;3.95;;;;;;;16.85;82.40;99491.31;4966613;28;20130;-75
2023/09/06 07:19:58;;;;;;;5.15;3.75;;;;;;;16.93;81.91;99492.63;4970483;28;20444;-75
2023/09/06 07:22:23;;;;;;;9.63;5.70;;;;;;;16.88;84.61;99488.09;4964615;28;20026;-75
2023/09/06 07:24:49;;;;;;;10.93;5.85;;;;;;;16.70;86.11;99499.44;4969533;28;20129;-76
2023/09/06 07:27:14;;;;;;;6.18;3.67;;;;;;;16.94;82.50;99492.38;4967277;28;20097;-76
2023/09/06 07:29:39;;;;;;;10.68;5.72;;;;;;;16.78;87.46;99498.88;4962433;28;20061;-75
2023/09/06 07:32:05;;;;;;;4.25;3.60;;;;;;;16.77;84.94;99502.69;4968892;28;20043;-75
2023/09/06 07:34:30;;;;;;;10.95;5.55;;;;;;;16.77;87.08;99494.59;4961812;28;20041;-75
2023/09/06 07:36:56;;;;;;;6.60;3.80;;;;;;;17.25;82.13;99496.56;4966724;28;20166;-76
2023/09/06 07:39:21;;;;;;;4.40;3.30;;;;;;;17.28;81.87;99506.03;4961809;28;20027;-76
2023/09/06 07:41:47;;;;;;;6.05;4.68;;;;;;;17.27;81.82;99507.13;4957202;28;20110;-76
2023/09/06 07:44:12;;;;;;;4.47;3.88;;;;;;;17.08;84.79;99504.19;4959680;28;20213;-76
2023/09/06 07:46:39;;;;;;;7.22;4.00;;;;;;;17.30;82.58;99506.53;4964173;28;20046;-76
2023/09/06 07:49:04;;;;;;;10.43;6.72;;;;;;;17.12;85.79;99509.88;4964855;28;20031;-76
2023/09/06 07:51:30;;;;;;;7.05;5.28;;;;;;;17.19;84.90;99502.28;4963097;28;20033;-76
2023/09/06 07:53:55;;;;;;;6.80;5.05;;;;;;;17.15;85.31;99506.59;4962973;28;20062;-75
2023/09/06 07:56:21;;;;;;;6.75;5.50;;;;;;;17.11;87.49;99503.66;4961299;28;20389;-73
2023/09/06 07:58:46;;;;;;;5.55;4.70;;;;;;;17.21;86.16;99502.84;4967095;28;20039;-76
2023/09/06 08:01:12;;;;;;;3.92;3.53;;;;;;;17.49;83.93;99509.44;4964429;28;21954;-75
2023/09/06 08:03:37;;;;;;;8.60;5.10;;;;;;;17.42;85.20;99501.66;4961600;28;20031;-76
2023/09/06 08:06:04;;;;;;;4.80;3.58;;;;;;;17.78;82.16;99499.59;4961892;28;20038;-75
2023/09/06 08:08:29;;;;;;;7.32;5.40;;;;;;;17.54;85.54;99507.56;4961239;28;20046;-75
2023/09/06 08:10:55;;;;;;;6.07;3.50;;;;;;;17.67;82.90;99506.16;4959555;28;20036;-75
2023/09/06 08:13:20;;;;;;;6.65;4.18;;;;;;;17.81;82.39;99507.97;4974512;28;20030;-75
2023/09/06 08:15:46;;;;;;;6.80;5.90;;;;;;;17.66;84.65;99502.66;4962857;28;20034;-76
2023/09/06 08:18:12;;;;;;;8.50;4.15;;;;;;;17.93;82.30;99511.13;4966758;28;20443;-75
2023/09/06 08:20:38;;;;;;;6.05;3.78;;;;;;;18.24;80.93;99502.81;4961782;28;20941;-75
2023/09/06 08:23:04;;;;;;;5.82;3.78;;;;;;;18.21;80.79;99503.38;4963877;28;20044;-75
2023/09/06 08:25:29;;;;;;;5.38;4.55;;;;;;;18.02;83.12;99497.03;4967022;28;20026;-75
2023/09/06 08:27:54;;;;;;;7.13;5.90;;;;;;;17.84;84.40;99501.97;4968748;28;20097;-75
2023/09/06 08:30:22;;;;;;;5.40;3.90;;;;;;;18.22;81.54;99503.06;4969023;28;20102;-75
2023/09/06 08:32:49;;;;;;;5.82;3.90;;;;;;;18.13;82.28;99499.34;4967820;28;20026;-76
2023/09/06 08:35:15;;;;;;;6.25;4.30;;;;;;;18.37;80.70;99499.47;4967714;28;20042;-76
2023/09/06 08:37:40;;;;;;;4.07;3.50;;;;;;;18.42;80.71;99494.00;4965368;28;20150;-76
2023/09/06 08:40:07;;;;;;;7.30;5.38;;;;;;;18.38;81.07;99499.19;4967421;28;20039;-75
2023/09/06 08:42:36;;;;;;;8.07;3.88;;;;;;;18.58;80.39;99501.75;4962038;28;20488;-76
2023/09/06 08:45:04;;;;;;;8.80;5.18;;;;;;;18.43;81.91;99501.84;4967768;28;20027;-75
2023/09/06 08:47:30;;;;;;;7.95;5.28;;;;;;;18.36;82.36;99509.47;4967444;28;20023;-75
2023/09/06 08:49:56;;;;;;;9.57;5.78;;;;;;;18.36;82.59;99508.66;4968283;28;20152;-75
2023/09/06 08:52:21;;;;;;;9.45;4.28;;;;;;;18.40;82.16;99501.59;4969079;28;20154;-75
2023/09/06 08:54:50;;;;;;;8.80;4.88;;;;;;;18.44;82.32;99506.19;4968395;28;20034;-76
2023/09/06 08:57:17;;;;;;;5.68;4.25;;;;;;;19.04;79.58;99493.97;4965987;28;21572;-75
2023/09/06 08:59:43;;;;;;;8.15;4.65;;;;;;;19.03;79.73;99495.03;4965735;28;20379;-75
2023/09/06 09:02:12;;;;;;;5.82;4.68;;;;;;;18.91;80.52;99497.34;4969625;28;20117;-76
2023/09/06 09:04:42;;;;;;;10.00;5.05;;;;;;;18.98;80.09;99492.38;4965089;28;20038;-75
2023/09/06 09:07:12;;;;;;;4.53;4.00;;;;;;;19.19;79.54;99496.50;4970478;28;20023;-75
2023/09/06 09:09:57;;;;;;;7.30;4.68;;;;;;;19.36;78.85;99488.75;4964238;28;20145;-76
2023/09/06 09:12:26;;;;;;;5.32;4.82;;;;;;;19.31;79.24;99494.16;4967433;28;20035;-76
2023/09/06 09:14:54;;;;;;;9.20;5.93;;;;;;;19.34;76.51;99479.25;4966871;28;20046;-77
2023/09/06 09:17:21;;;;;;;7.65;5.07;;;;;;;19.40;76.71;99492.47;4964021;28;20414;-75
2023/09/06 09:19:51;;;;;;;8.50;4.95;;;;;;;19.53;77.62;99482.81;4971230;28;20396;-75
2023/09/06 09:22:33;;;;;;;9.48;4.85;;;;;;;19.52;75.89;99477.72;4969883;28;20089;-75
2023/09/06 09:25:04;;;;;;;6.43;4.95;;;;;;;19.59;75.34;99478.16;4967404;28;20133;-75
2023/09/06 09:27:31;;;;;;;5.93;4.63;;;;;;;19.87;72.19;99477.22;4970732;28;20054;-75
2023/09/06 09:29:59;;;;;;;8.18;5.05;;;;;;;19.91;73.62;99464.69;4967429;28;20046;-75
2023/09/06 09:32:25;;;;;;;8.55;5.65;;;;;;;19.91;72.64;99473.63;4970082;28;20034;-76
2023/09/06 09:34:52;;;;;;;7.55;5.18;;;;;;;20.07;70.78;99480.41;4964635;28;20499;-76
2023/09/06 09:37:18;;;;;;;9.23;5.80;;;;;;;20.22;70.46;99479.41;4967468;28;20026;-76
2023/09/06 09:39:44;;;;;;;8.02;4.82;;;;;;;20.26;67.56;99472.28;4964833;28;20034;-76
2023/09/06 09:42:10;;;;;;;5.03;4.10;;;;;;;20.70;72.89;99472.59;4967108;28;20034;-76
2023/09/06 09:44:36;;;;;;;11.52;4.15;;;;;;;20.61;69.06;99474.41;4965698;28;20033;-76
2023/09/06 09:47:09;;;;;;;8.13;4.40;;;;;;;20.54;69.81;99473.97;4968959;28;20031;-76
2023/09/06 09:49:35;;;;;;;4.45;4.03;;;;;;;20.63;70.04;99465.94;4966658;28;20038;-77
2023/09/06 09:52:00;;;;;;;6.13;4.70;;;;;;;20.71;69.32;99473.38;4968102;28;20124;-76
2023/09/06 09:54:31;;;;;;;6.30;4.28;;;;;;;21.00;67.53;99467.69;4964763;28;20058;-76
2023/09/06 09:57:06;;;;;;;8.57;4.60;;;;;;;20.92;66.81;99475.41;4963944;28;20118;-78
2023/09/06 09:59:33;;;;;;;5.80;4.10;;;;;;;21.14;65.75;99468.53;4968046;28;20019;-76
2023/09/06 10:02:00;;;;;;;5.32;3.95;;;;;;;21.37;64.71;99464.78;4961053;28;20492;-76
2023/09/06 10:04:28;;;;;;;6.88;4.75;;;;;;;21.35;63.56;99473.25;4957667;28;20034;-77
2023/09/06 10:06:56;;;;;;;7.18;5.25;;;;;;;21.71;67.09;99473.28;4955511;28;20220;-76
2023/09/06 10:09:22;;;;;;;8.27;4.93;;;;;;;21.89;66.23;99458.75;4958778;28;20042;-77
2023/09/06 10:11:50;;;;;;;6.53;4.80;;;;;;;21.81;63.71;99459.47;4961339;28;20027;-76
2023/09/06 10:14:18;;;;;;;9.07;4.25;;;;;;;21.84;59.79;99464.31;4962050;28;20030;-76
2023/09/06 10:16:44;;;;;;;5.32;4.20;;;;;;;21.86;59.02;99464.81;4962267;28;20039;-77
2023/09/06 10:19:11;;;;;;;8.40;4.63;;;;;;;21.96;63.07;99461.88;4960769;28;20065;-77
2023/09/06 10:21:38;;;;;;;7.55;4.45;;;;;;;22.29;61.91;99459.69;4970448;28;20034;-77
2023/09/06 10:24:15;;;;;;;5.10;4.60;;;;;;;22.67;64.41;99465.56;4965740;28;20031;-77
2023/09/06 10:26:43;;;;;;;7.00;4.32;;;;;;;22.94;62.94;99458.00;4962339;28;20026;-76
2023/09/06 10:29:11;;;;;;;6.25;5.05;;;;;;;23.16;61.15;99456.31;4963055;28;20041;-77
2023/09/06 10:31:46;;;;;;;5.28;4.57;;;;;;;22.85;58.56;99457.16;4963844;28;20391;-76
2023/09/06 10:34:12;;;;;;;11.95;4.75;;;;;;;23.44;60.73;99453.03;5004042;23;20103;-76
2023/09/06 10:36:57;;;;;;;5.18;4.60;;;;;;;23.47;60.81;99446.97;5003404;28;20042;-77
2023/09/06 10:39:26;;;;;;;4.50;3.88;;;;;;;23.44;60.68;99455.75;5002453;28;20040;-77
2023/09/06 10:42:11;;;;;;;3.95;3.55;;;;;;;23.75;57.93;99444.75;5002646;28;20025;-76
2023/09/06 10:45:00;;;;;;;6.32;4.53;;;;;;;23.81;60.36;99452.44;5001273;28;20041;-77
2023/09/06 10:47:27;;;;;;;5.85;4.72;;;;;;;23.78;59.27;99453.09;5001343;28;20117;-75
2023/09/06 10:50:14;;;;;;;4.20;3.75;;;;;;;23.74;58.05;99456.78;5000540;28;20761;-76
2023/09/06 10:52:42;;;;;;;14.50;5.15;;;;;;;24.12;58.99;99452.31;5002069;28;20030;-76
2023/09/06 10:55:18;;;;;;;5.95;3.72;;;;;;;24.14;57.95;99446.53;4999247;28;20029;-75
2023/09/06 10:58:02;;;;;;;4.70;4.30;;;;;;;24.04;57.37;99449.56;5001751;28;20034;-76
2023/09/06 11:00:34;;;;;;;4.10;3.70;;;;;;;24.30;58.79;99442.97;5005145;28;20033;-77
2023/09/06 11:03:21;;;;;;;7.80;4.45;;;;;;;24.93;58.80;99449.56;5003091;28;20030;-77
2023/09/06 11:05:51;;;;;;;7.47;4.20;;;;;;;24.82;55.92;99446.38;5005991;28;20053;-76
2023/09/06 11:08:25;;;;;;;5.05;4.20;;;;;;;25.01;56.82;99438.59;5008665;28;20076;-76
2023/09/06 11:10:53;;;;;;;4.40;4.00;;;;;;;25.26;56.93;99440.41;5015144;28;20060;-76
2023/09/06 11:13:19;;;;;;;4.57;4.07;;;;;;;25.51;57.01;99437.88;5009717;28;20049;-76
2023/09/06 11:15:45;;;;;;;6.50;4.10;;;;;;;25.69;55.61;99436.59;5012668;28;20026;-77
2023/09/06 11:18:10;;;;;;;6.07;4.38;;;;;;;25.85;55.99;99437.59;5012219;28;20021;-77
2023/09/06 11:20:36;;;;;;;4.07;3.60;;;;;;;25.92;55.98;99438.66;5009297;28;20055;-77
2023/09/06 11:23:03;;;;;;;5.72;4.25;;;;;;;26.03;53.52;99439.06;5007460;28;20026;-77
2023/09/06 11:25:31;;;;;;;4.47;3.80;;;;;;;26.10;55.24;99439.34;5013313;28;20390;-77
2023/09/06 11:28:02;;;;;;;4.72;4.00;;;;;;;26.15;53.24;99436.38;5019782;28;20032;-76
2023/09/06 11:30:32;;;;;;;5.53;4.15;;;;;;;26.48;54.81;99428.16;5006241;28;20030;-77
2023/09/06 11:32:57;;;;;;;5.35;3.95;;;;;;;26.67;54.48;99422.94;5007340;28;20026;-77